createdAt,value
2018-11-06T00:01:41.756Z,36.73
2018-11-06T00:04:09.018Z,38.13
2018-11-06T00:06:36.288Z,40.90
2018-11-06T00:09:04.343Z,50.63
2018-11-06T00:11:38.202Z,49.93
2018-11-06T00:14:05.492Z,59.33
2018-11-06T00:16:32.716Z,61.93
2018-11-06T00:18:59.999Z,37.37
2018-11-06T00:21:27.240Z,33.73
2018-11-06T00:23:55.121Z,39.13
2018-11-06T00:26:22.363Z,42.47
2018-11-06T00:28:49.656Z,57.43
2018-11-06T00:31:16.917Z,81.20
2018-11-06T00:33:44.203Z,70.83
2018-11-06T00:36:11.471Z,105.17
2018-11-06T00:38:38.729Z,105.40
2018-11-06T00:41:05.998Z,101.60
2018-11-06T00:43:33.261Z,96.43
2018-11-06T00:46:00.508Z,91.37
2018-11-06T00:48:27.767Z,76.50
2018-11-06T00:50:54.986Z,68.17
2018-11-06T00:53:22.275Z,67.73
2018-11-06T00:55:49.498Z,102.57
2018-11-06T00:58:16.767Z,209.37
2018-11-06T01:00:43.994Z,207.63
2018-11-06T01:03:11.210Z,200.73
2018-11-06T01:05:38.523Z,132.83
2018-11-06T01:08:05.782Z,125.97
2018-11-06T01:10:33.072Z,45.33
2018-11-06T01:13:00.368Z,135.23
2018-11-06T01:15:27.655Z,137.77
2018-11-06T01:17:56.917Z,88.73
2018-11-06T01:23:14.647Z,93.93
2018-11-06T01:25:41.930Z,68.90
2018-11-06T01:28:09.144Z,53.60
2018-11-06T01:30:36.405Z,30.90
2018-11-06T01:33:03.819Z,30.60
2018-11-06T01:35:31.091Z,30.10
2018-11-06T01:37:58.339Z,24.80
2018-11-06T01:40:25.636Z,27.13
2018-11-06T01:42:52.869Z,27.60
2018-11-06T01:45:20.159Z,27.73
2018-11-06T01:47:47.409Z,23.87
2018-11-06T01:50:16.890Z,27.97
2018-11-06T01:52:45.059Z,23.97
2018-11-06T01:55:12.345Z,33.40
2018-11-06T01:57:39.689Z,40.23
2018-11-06T02:00:09.152Z,47.73
2018-11-06T02:02:36.412Z,42.03
2018-11-06T02:05:03.743Z,49.30
2018-11-06T02:07:31.069Z,47.80
2018-11-06T02:09:58.363Z,52.27
2018-11-06T02:12:25.640Z,48.93
2018-11-06T02:14:52.904Z,41.83
2018-11-06T02:17:20.219Z,55.17
2018-11-06T02:19:47.482Z,50.17
2018-11-06T02:22:14.747Z,43.97
2018-11-06T02:24:42.015Z,43.17
2018-11-06T02:27:09.252Z,35.90
2018-11-06T02:29:36.505Z,39.13
2018-11-06T02:32:03.877Z,37.57
2018-11-06T02:34:31.157Z,36.70
2018-11-06T02:36:58.469Z,26.47
2018-11-06T02:39:25.742Z,29.33
2018-11-06T02:41:53.019Z,24.87
2018-11-06T02:44:20.243Z,21.90
2018-11-06T02:46:47.520Z,25.30
2018-11-06T02:49:14.780Z,25.33
2018-11-06T02:51:42.040Z,29.83
2018-11-06T02:54:09.263Z,39.43
2018-11-06T02:56:36.579Z,37.17
2018-11-06T02:59:03.828Z,40.83
2018-11-06T03:01:31.210Z,49.27
2018-11-06T03:03:58.450Z,34.03
2018-11-06T03:06:25.687Z,31.43
2018-11-06T03:08:52.925Z,24.70
2018-11-06T03:11:20.228Z,20.23
2018-11-06T03:13:47.500Z,19.03
2018-11-06T03:16:14.777Z,19.03
2018-11-06T03:18:42.050Z,19.97
2018-11-06T03:21:09.315Z,20.33
2018-11-06T03:23:36.599Z,19.13
2018-11-06T03:26:03.932Z,21.40
2018-11-06T03:28:31.179Z,18.17
2018-11-06T03:30:58.462Z,16.37
2018-11-06T03:33:25.704Z,20.30
2018-11-06T03:35:53.007Z,16.73
2018-11-06T03:38:20.412Z,17.10
2018-11-06T03:40:47.673Z,15.17
2018-11-06T03:43:14.934Z,18.50
2018-11-06T03:45:42.207Z,20.53
2018-11-06T03:48:09.467Z,19.00
2018-11-06T03:50:36.714Z,20.73
2018-11-06T03:53:04.338Z,46.97
2018-11-06T03:55:31.608Z,59.60
2018-11-06T03:57:58.847Z,35.93
2018-11-06T04:00:26.116Z,55.10
2018-11-06T04:02:53.363Z,48.27
2018-11-06T04:05:20.642Z,61.03
2018-11-06T04:07:48.057Z,80.90
2018-11-06T04:10:15.308Z,31.20
2018-11-06T04:12:42.763Z,42.93
2018-11-06T04:15:11.533Z,51.53
2018-11-06T04:17:40.512Z,35.40
2018-11-06T04:20:09.452Z,43.03
2018-11-06T04:22:38.253Z,34.53
2018-11-06T04:25:05.986Z,22.03
2018-11-06T04:27:33.265Z,19.50
2018-11-06T04:30:00.473Z,16.87
2018-11-06T04:32:27.751Z,18.70
2018-11-06T04:34:54.999Z,18.43
2018-11-06T04:37:22.318Z,16.63
2018-11-06T04:39:49.558Z,19.13
2018-11-06T04:42:16.801Z,22.07
2018-11-06T04:44:44.014Z,25.40
2018-11-06T04:47:11.258Z,23.17
2018-11-06T04:49:38.525Z,23.33
2018-11-06T04:52:05.892Z,22.87
2018-11-06T04:54:33.120Z,24.57
2018-11-06T04:57:00.402Z,29.53
2018-11-06T04:59:27.635Z,32.07
2018-11-06T05:01:54.927Z,37.13
2018-11-06T05:04:22.178Z,31.43
2018-11-06T05:06:49.554Z,29.60
2018-11-06T05:09:16.784Z,29.17
2018-11-06T05:11:44.052Z,25.63
2018-11-06T05:14:11.339Z,29.13
2018-11-06T05:16:38.574Z,33.00
2018-11-06T05:19:06.435Z,27.67
2018-11-06T05:21:33.701Z,35.30
2018-11-06T05:24:01.887Z,33.90
2018-11-06T05:26:29.175Z,37.43
2018-11-06T05:28:56.429Z,35.90
2018-11-06T05:31:23.646Z,39.00
2018-11-06T05:33:50.934Z,37.73
2018-11-06T05:36:18.183Z,36.77
2018-11-06T05:38:45.449Z,28.37
2018-11-06T05:41:12.699Z,28.07
2018-11-06T05:43:39.985Z,24.73
2018-11-06T05:46:07.288Z,23.33
2018-11-06T05:48:34.567Z,26.87
2018-11-06T05:51:01.900Z,26.37
2018-11-06T05:53:29.213Z,28.20
2018-11-06T05:55:56.491Z,21.93
2018-11-06T05:58:24.744Z,21.40
2018-11-06T06:00:52.049Z,17.80
2018-11-06T06:03:19.409Z,18.47
2018-11-06T06:05:46.767Z,19.17
2018-11-06T06:08:14.190Z,19.57
2018-11-06T06:10:41.550Z,20.60
2018-11-06T06:13:08.964Z,22.27
2018-11-06T06:15:37.684Z,25.60
2018-11-06T06:18:05.566Z,23.83
2018-11-06T06:20:33.057Z,32.47
2018-11-06T06:23:01.386Z,34.03
2018-11-06T06:28:37.012Z,42.53
2018-11-06T06:31:04.840Z,47.40
2018-11-06T06:33:32.471Z,54.87
2018-11-06T06:36:02.118Z,51.47
2018-11-06T06:38:29.572Z,45.43
2018-11-06T06:40:57.268Z,40.27
2018-11-06T06:43:25.166Z,40.30
2018-11-06T06:45:52.544Z,35.73
2018-11-06T06:48:20.413Z,32.10
2018-11-06T06:50:47.876Z,29.07
2018-11-06T06:53:15.251Z,27.27
2018-11-06T06:55:42.584Z,24.27
2018-11-06T06:58:10.012Z,24.00
2018-11-06T07:00:37.878Z,22.77
2018-11-06T07:03:05.292Z,22.67
2018-11-06T07:05:32.680Z,21.57
2018-11-06T07:08:00.071Z,19.93
2018-11-06T07:10:27.400Z,19.10
2018-11-06T07:12:54.891Z,19.37
2018-11-06T07:15:22.619Z,21.00
2018-11-06T07:17:50.880Z,20.80
2018-11-06T07:20:19.554Z,20.70
2018-11-06T07:22:47.383Z,21.60
2018-11-06T07:25:15.129Z,23.47
2018-11-06T07:27:44.079Z,22.10
2018-11-06T07:30:15.352Z,21.53
2018-11-06T07:32:43.207Z,20.90
2018-11-06T07:35:11.325Z,24.73
2018-11-06T07:37:39.786Z,25.47
2018-11-06T07:40:09.058Z,24.23
2018-11-06T07:42:37.589Z,30.30
2018-11-06T07:45:07.174Z,28.17
2018-11-06T07:47:35.129Z,36.33
2018-11-06T07:50:02.666Z,27.87
2018-11-06T07:52:30.683Z,25.67
2018-11-06T07:54:58.085Z,29.37
2018-11-06T07:57:25.730Z,21.30
2018-11-06T07:59:54.066Z,17.83
2018-11-06T08:02:21.532Z,18.23
2018-11-06T08:04:48.898Z,19.93
2018-11-06T08:07:16.215Z,16.33
2018-11-06T08:09:43.772Z,23.13
2018-11-06T08:12:11.811Z,22.27
2018-11-06T08:14:39.878Z,19.13
2018-11-06T08:17:07.766Z,17.80
2018-11-06T08:19:35.172Z,17.80
2018-11-06T08:22:02.656Z,16.67
2018-11-06T08:24:31.086Z,15.80
2018-11-06T08:27:00.132Z,16.37
2018-11-06T08:29:31.913Z,13.03
2018-11-06T08:32:04.557Z,13.37
2018-11-06T08:34:37.632Z,12.40
2018-11-06T08:37:19.378Z,14.70
2018-11-06T08:39:59.105Z,14.73
2018-11-06T08:42:40.567Z,13.90
2018-11-06T08:45:22.760Z,15.03
2018-11-06T08:48:05.352Z,15.60
2018-11-06T08:50:46.619Z,15.37
2018-11-06T08:53:28.742Z,15.57
2018-11-06T08:56:09.593Z,14.27
2018-11-06T08:58:51.115Z,15.00
2018-11-06T09:01:19.141Z,12.80
2018-11-06T09:03:47.078Z,12.70
2018-11-06T09:06:15.485Z,12.17
2018-11-06T09:08:43.904Z,11.27
2018-11-06T09:11:26.820Z,12.77
2018-11-06T09:14:08.573Z,10.90
2018-11-06T09:16:49.771Z,11.17
2018-11-06T09:19:30.489Z,10.60
2018-11-06T09:21:57.838Z,10.30
2018-11-06T09:24:25.271Z,11.73
2018-11-06T09:26:53.417Z,11.97
2018-11-06T09:29:20.860Z,9.93
2018-11-06T09:31:48.419Z,10.77
2018-11-06T09:34:15.880Z,9.87
2018-11-06T09:36:43.528Z,10.20
2018-11-06T09:39:11.668Z,9.37
2018-11-06T09:41:39.335Z,9.67
2018-11-06T09:44:07.200Z,11.00
2018-11-06T09:46:35.071Z,12.07
2018-11-06T09:49:02.857Z,11.47
2018-11-06T09:51:30.395Z,10.37
2018-11-06T09:53:58.686Z,12.70
2018-11-06T09:56:26.465Z,15.40
2018-11-06T09:58:54.118Z,16.90
2018-11-06T10:01:21.565Z,12.33
2018-11-06T10:03:50.038Z,12.57
2018-11-06T10:06:17.907Z,13.47
2018-11-06T10:08:46.031Z,13.23
2018-11-06T10:11:13.990Z,10.43
2018-11-06T10:13:43.134Z,13.77
2018-11-06T10:16:13.352Z,12.60
2018-11-06T10:18:41.435Z,11.90
2018-11-06T10:21:09.449Z,10.70
2018-11-06T10:23:37.014Z,10.87
2018-11-06T10:26:04.905Z,12.27
2018-11-06T10:28:32.861Z,10.10
2018-11-06T10:31:00.581Z,11.63
2018-11-06T10:33:28.728Z,10.90
2018-11-06T10:35:56.606Z,11.07
2018-11-06T10:38:24.436Z,10.57
2018-11-06T10:40:52.602Z,11.17
2018-11-06T10:43:20.374Z,11.57
2018-11-06T10:45:47.918Z,10.93
2018-11-06T10:48:15.569Z,11.03
2018-11-06T10:50:44.289Z,13.20
2018-11-06T10:53:12.709Z,10.83
2018-11-06T10:55:41.751Z,11.53
2018-11-06T10:58:09.713Z,11.90
2018-11-06T11:00:43.634Z,10.20
2018-11-06T11:03:27.041Z,11.20
2018-11-06T11:06:08.090Z,10.83
2018-11-06T11:08:35.631Z,11.57
2018-11-06T11:11:05.053Z,12.13
2018-11-06T11:13:33.899Z,14.80
2018-11-06T11:16:04.541Z,12.93
2018-11-06T11:18:32.115Z,11.27
2018-11-06T11:21:02.376Z,12.20
2018-11-06T11:23:30.134Z,13.50
2018-11-06T11:25:57.929Z,11.47
2018-11-06T11:28:25.823Z,12.60
2018-11-06T11:30:54.029Z,11.50
2018-11-06T11:33:21.494Z,11.60
2018-11-06T11:35:51.685Z,12.13
2018-11-06T11:38:19.079Z,13.87
2018-11-06T11:40:47.125Z,16.57
2018-11-06T11:43:29.886Z,13.20
2018-11-06T11:46:10.869Z,13.50
2018-11-06T11:48:39.995Z,12.87
2018-11-06T11:51:08.657Z,18.27
2018-11-06T11:53:36.412Z,15.07
2018-11-06T11:56:05.296Z,14.90
2018-11-06T11:58:34.393Z,15.20
2018-11-06T12:01:02.713Z,12.13
2018-11-06T12:03:30.750Z,12.80
2018-11-06T12:05:59.020Z,13.87
2018-11-06T12:08:31.464Z,18.03
2018-11-06T12:11:02.876Z,13.70
2018-11-06T12:13:45.450Z,13.30
2018-11-06T12:16:26.566Z,16.10
2018-11-06T12:19:08.202Z,14.57
2018-11-06T12:21:36.138Z,13.60
2018-11-06T12:24:04.176Z,15.13
2018-11-06T12:26:31.803Z,15.13
2018-11-06T12:28:59.751Z,14.93
2018-11-06T12:31:27.203Z,14.57
2018-11-06T12:34:09.040Z,16.10
2018-11-06T12:36:50.446Z,14.83
2018-11-06T12:39:18.131Z,14.83
2018-11-06T12:41:45.808Z,14.53
2018-11-06T12:44:13.754Z,14.30
2018-11-06T12:46:43.801Z,19.37
2018-11-06T12:49:12.113Z,13.40
2018-11-06T12:51:41.495Z,14.33
2018-11-06T12:54:09.523Z,15.93
2018-11-06T12:56:37.267Z,15.47
2018-11-06T12:59:07.744Z,17.53
2018-11-06T13:01:35.358Z,17.47
2018-11-06T13:04:03.520Z,15.13
2018-11-06T13:06:31.511Z,15.70
2018-11-06T13:09:00.160Z,16.43
2018-11-06T13:11:28.762Z,15.93
2018-11-06T13:13:56.452Z,17.13
2018-11-06T13:16:24.030Z,15.17
2018-11-06T13:18:51.469Z,15.77
2018-11-06T13:21:18.868Z,14.30
2018-11-06T13:23:46.151Z,16.67
2018-11-06T13:26:14.899Z,16.23
2018-11-06T13:28:42.739Z,15.53
2018-11-06T13:31:10.249Z,17.93
2018-11-06T13:33:41.101Z,16.63
2018-11-06T13:36:08.695Z,16.03
2018-11-06T13:38:36.350Z,18.03
2018-11-06T13:41:04.209Z,17.30
2018-11-06T13:43:32.804Z,17.00
2018-11-06T13:46:01.673Z,15.70
2018-11-06T13:48:31.784Z,23.20
2018-11-06T13:50:59.325Z,21.53
2018-11-06T13:53:30.994Z,15.80
2018-11-06T13:56:00.109Z,14.93
2018-11-06T13:58:32.361Z,16.60
2018-11-06T14:01:00.860Z,15.13
2018-11-06T14:03:29.630Z,15.83
2018-11-06T14:06:01.739Z,15.07
2018-11-06T14:08:34.840Z,14.30
2018-11-06T14:11:07.959Z,16.67
2018-11-06T14:13:40.435Z,17.37
2018-11-06T14:16:11.337Z,20.53
2018-11-06T14:19:05.421Z,18.27
2018-11-06T14:21:40.347Z,15.30
2018-11-06T14:24:21.719Z,15.33
2018-11-06T14:26:52.655Z,15.53
2018-11-06T14:29:20.170Z,16.23
2018-11-06T14:31:47.832Z,16.30
2018-11-06T14:34:15.233Z,16.47
2018-11-06T14:36:42.915Z,16.37
2018-11-06T14:39:10.244Z,16.37
2018-11-06T14:41:37.823Z,16.10
2018-11-06T14:44:05.111Z,18.70
2018-11-06T14:46:32.481Z,17.90
2018-11-06T14:48:59.956Z,20.27
2018-11-06T14:51:27.276Z,17.57
2018-11-06T14:53:54.578Z,19.27
2018-11-06T14:56:21.841Z,24.07
2018-11-06T14:58:49.134Z,21.10
2018-11-06T15:01:16.425Z,22.83
2018-11-06T15:03:43.769Z,20.93
2018-11-06T15:06:11.107Z,20.10
2018-11-06T15:08:38.421Z,20.03
2018-11-06T15:11:05.711Z,20.47
2018-11-06T15:13:36.624Z,22.37
2018-11-06T15:16:03.966Z,20.30
2018-11-06T15:18:31.264Z,22.50
2018-11-06T15:20:58.710Z,26.10
2018-11-06T15:23:25.867Z,23.50
2018-11-06T15:25:53.237Z,23.60
2018-11-06T15:28:20.555Z,25.17
2018-11-06T15:30:47.824Z,22.20
2018-11-06T15:33:15.094Z,24.87
2018-11-06T15:35:42.350Z,22.53
2018-11-06T15:38:09.608Z,22.50
2018-11-06T15:40:36.906Z,30.23
2018-11-06T15:43:04.214Z,23.33
2018-11-06T15:45:31.515Z,28.37
2018-11-06T15:47:58.868Z,24.83
2018-11-06T15:50:26.198Z,24.07
2018-11-06T15:52:53.502Z,23.07
2018-11-06T15:55:20.784Z,28.33
2018-11-06T15:57:48.079Z,24.80
2018-11-06T16:00:17.627Z,26.93
2018-11-06T16:02:45.598Z,22.00
2018-11-06T16:05:13.184Z,30.43
2018-11-06T16:07:40.733Z,29.30
2018-11-06T16:10:10.258Z,30.30
2018-11-06T16:12:52.150Z,25.07
2018-11-06T16:15:33.411Z,25.00
2018-11-06T16:18:01.464Z,24.73
2018-11-06T16:20:28.970Z,26.03
2018-11-06T16:22:56.249Z,25.93
2018-11-06T16:25:23.612Z,23.43
2018-11-06T16:27:50.891Z,24.30
2018-11-06T16:30:19.598Z,26.40
2018-11-06T16:32:46.881Z,22.47
2018-11-06T16:35:16.352Z,26.40
2018-11-06T16:37:44.079Z,28.97
2018-11-06T16:40:11.895Z,41.77
2018-11-06T16:42:39.918Z,43.40
2018-11-06T16:45:09.079Z,35.33
2018-11-06T16:47:36.314Z,28.57
2018-11-06T16:50:11.420Z,27.30
2018-11-06T16:52:38.703Z,35.30
2018-11-06T16:55:06.667Z,33.07
2018-11-06T16:57:33.900Z,37.70
2018-11-06T17:00:01.300Z,36.87
2018-11-06T17:02:28.532Z,31.67
2018-11-06T17:04:55.761Z,29.40
2018-11-06T17:07:23.107Z,34.03
2018-11-06T17:09:50.318Z,35.67
2018-11-06T17:12:17.539Z,34.80
2018-11-06T17:14:44.776Z,32.30
2018-11-06T17:17:12.080Z,32.00
2018-11-06T17:19:39.315Z,43.53
2018-11-06T17:22:06.780Z,51.00
2018-11-06T17:24:34.033Z,39.00
2018-11-06T17:27:02.381Z,36.80
2018-11-06T17:29:29.602Z,44.13
2018-11-06T17:31:56.859Z,33.50
2018-11-06T17:34:24.091Z,36.13
2018-11-06T17:36:51.312Z,35.83
2018-11-06T17:39:18.613Z,34.13
2018-11-06T17:41:45.954Z,37.87
2018-11-06T17:44:13.163Z,37.93
2018-11-06T17:46:40.522Z,36.60
2018-11-06T17:49:07.722Z,38.43
2018-11-06T17:51:34.981Z,37.17
2018-11-06T17:54:02.216Z,34.37
2018-11-06T17:56:29.475Z,37.10
2018-11-06T17:58:56.724Z,37.53
2018-11-06T18:01:24.109Z,36.57
2018-11-06T18:03:51.370Z,40.97
2018-11-06T18:06:18.624Z,35.13
2018-11-06T18:08:45.856Z,42.37
2018-11-06T18:11:13.204Z,35.33
2018-11-06T18:13:40.582Z,42.87
2018-11-06T18:16:07.807Z,41.27
2018-11-06T18:18:35.138Z,37.33
2018-11-06T18:21:02.419Z,42.20
2018-11-06T18:23:29.690Z,39.43
2018-11-06T18:25:57.000Z,40.40
2018-11-06T18:28:24.225Z,39.23
2018-11-06T18:30:51.451Z,36.50
2018-11-06T18:33:18.699Z,42.07
2018-11-06T18:35:45.906Z,37.93
2018-11-06T18:38:13.174Z,44.03
2018-11-06T18:40:40.538Z,40.43
2018-11-06T18:43:07.892Z,42.40
2018-11-06T18:45:35.143Z,40.13
2018-11-06T18:48:02.472Z,37.27
2018-11-06T18:50:29.732Z,32.70
2018-11-06T18:52:57.003Z,29.40
2018-11-06T18:55:24.271Z,28.17
2018-11-06T18:57:51.565Z,30.90
2018-11-06T19:00:20.217Z,32.13
2018-11-06T19:02:48.776Z,30.50
2018-11-06T19:05:16.463Z,25.43
2018-11-06T19:07:43.881Z,23.30
2018-11-06T19:10:12.787Z,22.17
2018-11-06T19:12:40.269Z,23.93
2018-11-06T19:15:10.177Z,20.50
2018-11-06T19:17:38.219Z,24.57
2018-11-06T19:20:05.916Z,20.80
2018-11-06T19:22:33.510Z,19.97
2018-11-06T19:25:08.159Z,23.73
2018-11-06T19:27:35.651Z,21.27
2018-11-06T19:30:03.738Z,16.27
2018-11-06T19:32:32.919Z,18.03
2018-11-06T19:35:00.234Z,19.40
2018-11-06T19:37:27.621Z,17.47
2018-11-06T19:39:54.970Z,18.90
2018-11-06T19:42:22.292Z,19.27
2018-11-06T19:44:49.582Z,21.57
2018-11-06T19:47:17.799Z,20.90
2018-11-06T19:49:45.018Z,18.77
2018-11-06T19:52:12.291Z,26.87
2018-11-06T19:54:39.566Z,20.43
2018-11-06T19:57:06.893Z,26.50
2018-11-06T19:59:34.198Z,21.13
2018-11-06T20:02:01.596Z,18.77
2018-11-06T20:04:28.999Z,21.10
2018-11-06T20:06:57.275Z,20.73
2018-11-06T20:09:24.661Z,21.27
2018-11-06T20:11:52.087Z,23.10
2018-11-06T20:14:19.453Z,19.37
2018-11-06T20:16:46.793Z,19.07
2018-11-06T20:19:14.145Z,21.17
2018-11-06T20:21:41.526Z,21.87
2018-11-06T20:24:08.949Z,21.23
2018-11-06T20:26:36.548Z,18.87
2018-11-06T20:29:04.507Z,19.27
2018-11-06T20:31:31.826Z,22.30
2018-11-06T20:33:59.362Z,20.00
2018-11-06T20:36:26.694Z,19.90
2018-11-06T20:38:54.101Z,17.27
2018-11-06T20:41:21.616Z,21.10
2018-11-06T20:43:49.115Z,22.80
2018-11-06T20:46:16.445Z,19.13
2018-11-06T20:48:43.931Z,22.23
2018-11-06T20:51:11.942Z,19.33
2018-11-06T20:53:39.457Z,20.47
2018-11-06T20:56:06.867Z,24.67
2018-11-06T20:58:34.498Z,19.40
2018-11-06T21:01:02.747Z,17.83
2018-11-06T21:03:30.130Z,19.47
2018-11-06T21:05:57.652Z,22.17
2018-11-06T21:08:24.862Z,21.10
2018-11-06T21:10:53.068Z,21.53
2018-11-06T21:13:20.633Z,20.97
2018-11-06T21:15:48.968Z,25.07
2018-11-06T21:18:18.392Z,21.43
2018-11-06T21:20:45.773Z,25.83
2018-11-06T21:23:13.917Z,24.40
2018-11-06T21:25:41.777Z,23.67
2018-11-06T21:28:08.904Z,23.83
2018-11-06T21:30:36.545Z,26.20
2018-11-06T21:33:03.861Z,27.13
2018-11-06T21:35:31.209Z,23.93
2018-11-06T21:37:58.578Z,22.77
2018-11-06T21:40:26.788Z,20.50
2018-11-06T21:42:54.658Z,23.83
2018-11-06T21:45:21.945Z,25.47
2018-11-06T21:47:49.864Z,34.77
2018-11-06T21:50:17.575Z,32.70
2018-11-06T21:52:45.019Z,27.43
2018-11-06T21:55:13.485Z,26.27
2018-11-06T21:57:41.469Z,24.87
2018-11-06T22:00:11.318Z,26.60
2018-11-06T22:02:38.656Z,28.20
2018-11-06T22:05:07.178Z,28.10
2018-11-06T22:07:34.518Z,32.57
2018-11-06T22:10:01.820Z,26.17
2018-11-06T22:12:29.111Z,32.23
2018-11-06T22:14:56.383Z,34.77
2018-11-06T22:17:23.607Z,41.27
2018-11-06T22:19:51.059Z,28.30
2018-11-06T22:22:19.248Z,32.83
2018-11-06T22:24:46.806Z,41.17
2018-11-06T22:27:14.051Z,36.93
2018-11-06T22:29:41.349Z,37.63
2018-11-06T22:32:08.657Z,45.10
2018-11-06T22:34:36.041Z,40.07
2018-11-06T22:37:03.325Z,34.93
2018-11-06T22:39:30.575Z,32.50
2018-11-06T22:41:57.880Z,39.20
2018-11-06T22:44:25.170Z,34.07
2018-11-06T22:46:52.415Z,39.37
2018-11-06T22:49:19.800Z,38.00
2018-11-06T22:51:47.039Z,35.03
2018-11-06T22:54:14.404Z,43.63
2018-11-06T22:56:41.727Z,48.37
2018-11-06T22:59:09.063Z,46.93
2018-11-06T23:01:36.337Z,36.63
2018-11-06T23:04:03.582Z,34.77
2018-11-06T23:06:30.864Z,38.17
2018-11-06T23:08:58.045Z,42.47
2018-11-06T23:11:25.257Z,50.77
2018-11-06T23:13:52.463Z,39.10
2018-11-06T23:16:19.713Z,35.23
2018-11-06T23:18:46.936Z,35.20
2018-11-06T23:21:14.211Z,35.30
2018-11-06T23:23:41.474Z,32.67
2018-11-06T23:26:08.707Z,31.93
2018-11-06T23:28:35.948Z,24.00
2018-11-06T23:31:03.190Z,23.67
2018-11-06T23:33:30.398Z,22.17
2018-11-06T23:35:57.607Z,22.93
2018-11-06T23:38:24.829Z,26.50
2018-11-06T23:40:52.122Z,31.43
2018-11-06T23:43:19.354Z,29.37
2018-11-06T23:45:46.615Z,33.00
2018-11-06T23:48:13.827Z,37.33
2018-11-06T23:50:41.095Z,41.40
2018-11-06T23:53:08.334Z,36.93
2018-11-06T23:55:35.591Z,40.80
2018-11-06T23:58:02.835Z,36.27
